Time;durP1;ratioP1;P1;durP2;ratioP2;P2;SDS_P1;SDS_P2;PMS_P1;PMS_P2;Temp;Humidity;BMP_temperature;BMP_pressure;BME280_temperature;BME280_humidity;BME280_pressure;Samples;Min_cycle;Max_cycle;Signal;HPM_P1;HPM_P2
2023/03/01 00:01:51;;;;;;;9.15;5.50;;;8.50;60.60;;;;;;6184431;23;20001;-79
2023/03/01 00:04:17;;;;;;;7.93;5.50;;;8.60;60.30;;;;;;6180089;23;20297;-79
2023/03/01 00:06:45;;;;;;;10.13;4.80;;;8.60;60.00;;;;;;6183052;23;20005;-79
2023/03/01 00:09:12;;;;;;;11.68;6.10;;;8.60;60.00;;;;;;6183900;23;20028;-79
2023/03/01 00:11:38;;;;;;;8.85;5.25;;;8.50;59.80;;;;;;6183440;23;20028;-79
2023/03/01 00:14:04;;;;;;;8.85;5.22;;;8.50;59.40;;;;;;6184985;23;20005;-78
2023/03/01 00:16:33;;;;;;;7.80;4.95;;;8.60;59.90;;;;;;6184740;23;20027;-78
2023/03/01 00:18:59;;;;;;;8.18;4.93;;;8.60;60.00;;;;;;6184935;23;20097;-78
2023/03/01 00:21:26;;;;;;;6.70;4.97;;;8.60;60.00;;;;;;6185039;23;20055;-78
2023/03/01 00:23:52;;;;;;;10.40;5.40;;;8.60;60.20;;;;;;6184859;23;20012;-78
2023/03/01 00:26:20;;;;;;;7.00;4.88;;;8.50;60.20;;;;;;6184368;23;20076;-79
2023/03/01 00:28:46;;;;;;;6.35;4.80;;;8.60;60.20;;;;;;6183434;23;20005;-79
2023/03/01 00:31:18;;;;;;;7.18;5.35;;;8.50;59.60;;;;;;6183961;23;20054;-79
2023/03/01 00:33:44;;;;;;;8.70;5.00;;;8.60;60.10;;;;;;6184427;23;20005;-81
2023/03/01 00:36:12;;;;;;;12.60;5.55;;;8.50;59.60;;;;;;6182932;23;20001;-82
2023/03/01 00:38:39;;;;;;;7.78;5.38;;;8.40;59.60;;;;;;6183519;23;19997;-82
2023/03/01 00:41:12;;;;;;;8.93;5.75;;;8.50;60.10;;;;;;6184451;23;20009;-82
2023/03/01 00:43:38;;;;;;;10.05;5.55;;;8.30;60.40;;;;;;6183700;23;20012;-83
2023/03/01 00:46:07;;;;;;;8.05;4.85;;;8.30;60.10;;;;;;6183462;23;20032;-83
2023/03/01 00:48:33;;;;;;;10.05;5.70;;;8.30;60.10;;;;;;6184210;23;20005;-83
2023/03/01 00:51:09;;;;;;;7.60;4.80;;;8.40;60.50;;;;;;6182232;23;20467;-83
2023/03/01 00:53:35;;;;;;;8.63;5.57;;;8.40;60.40;;;;;;6183893;23;20072;-83
2023/03/01 00:56:02;;;;;;;7.13;5.15;;;8.40;60.60;;;;;;6184517;23;20005;-83
2023/03/01 00:58:28;;;;;;;8.43;5.60;;;8.30;60.50;;;;;;6185842;23;20076;-83
2023/03/01 01:00:54;;;;;;;8.82;5.38;;;8.30;60.70;;;;;;6184616;23;20114;-83
2023/03/01 01:03:20;;;;;;;9.77;5.15;;;8.40;60.60;;;;;;6186070;23;20024;-83
2023/03/01 01:05:46;;;;;;;9.73;5.25;;;8.40;60.30;;;;;;6186222;23;20135;-82
2023/03/01 01:08:12;;;;;;;9.48;5.80;;;8.30;60.20;;;;;;6186504;23;20368;-82
2023/03/01 01:10:37;;;;;;;9.90;5.60;;;8.20;60.50;;;;;;6186305;23;20028;-81
2023/03/01 01:13:03;;;;;;;7.50;5.13;;;8.20;60.50;;;;;;6186431;23;20408;-81
2023/03/01 01:15:32;;;;;;;8.07;6.07;;;8.30;60.30;;;;;;6184734;23;20024;-82
2023/03/01 01:17:58;;;;;;;11.70;6.25;;;8.30;60.30;;;;;;6185248;23;20307;-82
2023/03/01 01:20:24;;;;;;;8.45;5.43;;;8.30;60.20;;;;;;6186156;23;20029;-82
2023/03/01 01:22:51;;;;;;;8.65;5.07;;;8.30;60.40;;;;;;6185055;23;20009;-81
2023/03/01 01:25:16;;;;;;;6.57;4.95;;;8.30;60.40;;;;;;6185883;23;20005;-82
2023/03/01 01:27:42;;;;;;;9.25;6.10;;;8.40;60.30;;;;;;6186082;23;20008;-82
2023/03/01 01:30:08;;;;;;;9.27;5.90;;;8.40;60.30;;;;;;6184742;23;20012;-82
2023/03/01 01:32:34;;;;;;;7.85;4.80;;;8.40;60.50;;;;;;6184889;23;20364;-82
2023/03/01 01:35:00;;;;;;;8.07;5.78;;;8.50;60.40;;;;;;6185422;23;20005;-82
2023/03/01 01:37:30;;;;;;;9.32;5.95;;;8.50;60.30;;;;;;6182005;23;20371;-82
2023/03/01 01:39:58;;;;;;;10.60;5.93;;;8.50;60.00;;;;;;6185807;23;20028;-82
2023/03/01 01:42:24;;;;;;;7.65;4.78;;;8.50;60.10;;;;;;6185832;23;20105;-81
2023/03/01 01:45:25;;;;;;;8.43;4.80;;;8.60;60.20;;;;;;6185406;23;20396;-82
2023/03/01 01:47:52;;;;;;;9.40;5.13;;;8.50;60.10;;;;;;6185176;23;20005;-82
2023/03/01 01:50:19;;;;;;;10.25;6.32;;;8.50;60.00;;;;;;6184681;23;20434;-81
2023/03/01 01:52:46;;;;;;;8.45;5.32;;;8.60;60.00;;;;;;6184535;23;20431;-81
2023/03/01 01:55:17;;;;;;;9.90;6.10;;;8.60;60.00;;;;;;6184666;23;20001;-82
2023/03/01 01:57:49;;;;;;;8.65;6.25;;;8.50;60.00;;;;;;6184000;23;20051;-81
2023/03/01 02:00:22;;;;;;;8.68;5.30;;;8.50;59.80;;;;;;6184850;23;20001;-81
2023/03/01 02:02:54;;;;;;;6.72;4.97;;;8.60;60.20;;;;;;6185469;23;20012;-82
2023/03/01 02:05:56;;;;;;;7.57;5.38;;;8.50;59.60;;;;;;6183983;23;20439;-82
2023/03/01 02:08:24;;;;;;;7.93;4.82;;;8.60;60.10;;;;;;6169505;23;20001;-81
2023/03/01 02:10:52;;;;;;;8.95;6.20;;;8.60;60.00;;;;;;6185374;23;20047;-81
2023/03/01 02:13:18;;;;;;;7.68;5.50;;;8.60;60.00;;;;;;6185710;23;20021;-81
2023/03/01 02:15:44;;;;;;;10.40;6.22;;;8.60;59.60;;;;;;6185213;23;20309;-82
2023/03/01 02:18:13;;;;;;;10.52;6.57;;;8.70;59.80;;;;;;6183598;23;20005;-82
2023/03/01 02:20:45;;;;;;;8.70;5.07;;;8.60;59.80;;;;;;6183114;23;20063;-82
2023/03/01 02:23:11;;;;;;;8.95;5.07;;;8.60;60.00;;;;;;6185433;23;20084;-84
2023/03/01 02:25:58;;;;;;;7.53;5.32;;;8.60;60.00;;;;;;6184176;23;20037;-84
2023/03/01 02:28:30;;;;;;;10.70;5.90;;;8.60;59.70;;;;;;6183761;23;20001;-84
2023/03/01 02:33:42;;;;;;;7.68;4.63;;;8.60;60.10;;;;;;6181563;23;20061;-84
2023/03/01 02:36:21;;;;;;;5.70;4.50;;;8.60;60.00;;;;;;6184301;23;20004;-83
2023/03/01 02:38:49;;;;;;;7.78;5.13;;;8.70;60.00;;;;;;6185122;23;20123;-83
2023/03/01 02:41:17;;;;;;;7.47;5.03;;;8.70;59.90;;;;;;6185286;23;20059;-83
2023/03/01 02:43:43;;;;;;;6.50;4.55;;;8.70;59.70;;;;;;6184548;23;20311;-83
2023/03/01 02:46:16;;;;;;;9.70;5.32;;;8.70;59.70;;;;;;6184272;23;20080;-82
2023/03/01 02:48:48;;;;;;;7.97;5.43;;;8.80;59.90;;;;;;6184781;23;20005;-82
2023/03/01 02:51:24;;;;;;;6.13;4.40;;;8.70;59.80;;;;;;6184559;23;20012;-82
2023/03/01 02:54:14;;;;;;;6.63;4.55;;;8.70;59.90;;;;;;6184887;23;20324;-83
2023/03/01 02:56:41;;;;;;;10.75;4.95;;;8.70;59.40;;;;;;6184635;23;20001;-83
2023/03/01 02:59:07;;;;;;;8.00;4.82;;;8.70;60.00;;;;;;6184636;23;20008;-83
2023/03/01 03:01:38;;;;;;;7.75;5.25;;;8.80;59.60;;;;;;6185238;23;20408;-82
2023/03/01 03:04:06;;;;;;;8.70;6.10;;;8.70;59.60;;;;;;6184215;23;20123;-82
2023/03/01 03:06:32;;;;;;;8.32;5.22;;;8.70;59.40;;;;;;6185201;23;20127;-82
2023/03/01 03:08:58;;;;;;;7.45;4.93;;;8.70;59.80;;;;;;6184975;23;20446;-83
2023/03/01 03:11:24;;;;;;;9.00;5.43;;;8.70;59.80;;;;;;6184677;23;20000;-85
2023/03/01 03:13:50;;;;;;;6.72;4.82;;;8.70;59.50;;;;;;6185032;23;20028;-84
2023/03/01 03:16:16;;;;;;;8.02;5.22;;;;;;;;;;6184201;23;19997;-85
2023/03/01 03:18:42;;;;;;;7.15;4.65;;;8.70;59.40;;;;;;6183914;23;20002;-79
2023/03/01 03:21:11;;;;;;;7.13;4.60;;;8.70;60.10;;;;;;6184394;23;20059;-79
2023/03/01 03:23:37;;;;;;;5.13;4.00;;;8.70;60.10;;;;;;6184730;23;20029;-79
2023/03/01 03:26:04;;;;;;;7.63;5.00;;;8.70;60.20;;;;;;6184152;23;20005;-79
2023/03/01 03:28:31;;;;;;;7.47;5.18;;;8.60;60.20;;;;;;6184214;23;20434;-80
2023/03/01 03:30:58;;;;;;;6.68;4.47;;;8.60;59.90;;;;;;6183959;23;20011;-79
2023/03/01 03:33:24;;;;;;;7.53;4.55;;;8.50;59.80;;;;;;6184944;23;20076;-80
2023/03/01 03:35:50;;;;;;;6.28;4.30;;;8.60;60.50;;;;;;6184108;23;20307;-80
2023/03/01 03:38:20;;;;;;;6.53;4.65;;;8.70;60.20;;;;;;6183530;23;20008;-80
2023/03/01 03:41:04;;;;;;;8.55;4.80;;;8.70;59.40;;;;;;6184615;23;20028;-80
2023/03/01 03:43:32;;;;;;;7.25;4.60;;;8.70;59.90;;;;;;6184850;23;20001;-78
2023/03/01 03:45:58;;;;;;;8.60;4.90;;;8.60;59.80;;;;;;6184294;23;20411;-79
2023/03/01 03:48:24;;;;;;;7.25;4.85;;;8.60;60.10;;;;;;6184746;23;20011;-79
2023/03/01 03:50:53;;;;;;;7.65;4.80;;;8.50;60.40;;;;;;6184737;23;20416;-79
2023/03/01 03:53:20;;;;;;;8.85;4.90;;;8.60;60.00;;;;;;6184080;23;20080;-79
2023/03/01 03:55:49;;;;;;;9.30;4.32;;;8.60;60.20;;;;;;6181945;23;20005;-79
2023/03/01 03:58:15;;;;;;;5.28;3.60;;;8.70;60.20;;;;;;6184669;23;20020;-78
2023/03/01 04:00:43;;;;;;;8.40;4.90;;;8.70;60.20;;;;;;6183897;23;20104;-78
2023/03/01 04:03:11;;;;;;;8.00;4.85;;;8.80;59.90;;;;;;6185010;23;20009;-78
2023/03/01 04:05:38;;;;;;;7.30;4.53;;;8.80;60.10;;;;;;6184060;23;20008;-78
2023/03/01 04:08:07;;;;;;;8.40;4.60;;;8.80;60.10;;;;;;6183675;23;20009;-78
2023/03/01 04:10:36;;;;;;;7.38;4.82;;;8.80;60.00;;;;;;6185609;23;20001;-78
2023/03/01 04:13:02;;;;;;;6.20;4.07;;;8.90;60.00;;;;;;6184909;23;20001;-78
2023/03/01 04:15:28;;;;;;;5.88;4.30;;;8.80;60.00;;;;;;6183966;23;20363;-78
2023/03/01 04:17:54;;;;;;;10.15;5.28;;;8.90;60.10;;;;;;6184024;23;20020;-78
2023/03/01 04:20:28;;;;;;;6.53;3.90;;;8.70;60.00;;;;;;6183365;23;20008;-78
2023/03/01 04:23:21;;;;;;;7.95;3.95;;;8.80;60.00;;;;;;6184649;23;20086;-78
2023/03/01 04:25:54;;;;;;;8.38;4.95;;;8.80;59.60;;;;;;6183651;23;20002;-78
2023/03/01 04:28:29;;;;;;;7.63;5.50;;;8.80;60.20;;;;;;6183499;23;20020;-78
2023/03/01 04:30:56;;;;;;;8.43;5.10;;;8.80;60.10;;;;;;6186028;23;20388;-78
2023/03/01 04:33:23;;;;;;;7.63;4.95;;;8.80;60.20;;;;;;6186156;23;20031;-78
2023/03/01 04:35:49;;;;;;;6.90;4.05;;;8.80;60.30;;;;;;6185489;23;20002;-78
2023/03/01 04:38:16;;;;;;;6.35;4.05;;;8.90;60.00;;;;;;6186358;23;20425;-78
2023/03/01 04:40:42;;;;;;;10.45;6.05;;;8.90;60.30;;;;;;6186454;23;20033;-79
2023/03/01 04:43:09;;;;;;;9.38;4.60;;;8.80;59.80;;;;;;6187040;23;20008;-79
2023/03/01 04:45:35;;;;;;;6.57;4.65;;;8.90;60.40;;;;;;6186234;23;20032;-79
2023/03/01 04:48:02;;;;;;;6.63;5.13;;;8.90;60.50;;;;;;6186518;23;20011;-79
2023/03/01 04:50:28;;;;;;;8.73;5.85;;;8.90;60.40;;;;;;6184948;23;20013;-80
2023/03/01 04:52:53;;;;;;;6.50;4.35;;;8.90;60.20;;;;;;6186809;23;20481;-81
2023/03/01 04:55:19;;;;;;;8.00;4.38;;;8.90;60.60;;;;;;6186188;23;20468;-81
2023/03/01 04:57:45;;;;;;;9.88;4.82;;;9.00;60.50;;;;;;6185459;23;20319;-80
2023/03/01 05:00:22;;;;;;;5.88;3.92;;;8.90;60.50;;;;;;6173225;23;20067;-80
2023/03/01 05:02:54;;;;;;;7.65;4.82;;;9.00;60.20;;;;;;6186259;23;20428;-80
2023/03/01 05:05:26;;;;;;;7.03;4.57;;;9.00;60.50;;;;;;6186331;23;19997;-80
2023/03/01 05:07:53;;;;;;;7.68;5.22;;;9.00;60.60;;;;;;6185448;23;19997;-79
2023/03/01 05:10:20;;;;;;;6.80;4.40;;;9.10;60.60;;;;;;6184836;23;20008;-79
2023/03/01 05:12:46;;;;;;;10.43;4.88;;;9.10;60.10;;;;;;6186293;23;20347;-79
2023/03/01 05:15:12;;;;;;;7.90;5.05;;;9.10;60.60;;;;;;6185265;23;20080;-78
2023/03/01 05:17:38;;;;;;;7.38;4.57;;;9.20;60.50;;;;;;6183618;23;20087;-79
2023/03/01 05:20:08;;;;;;;7.47;4.28;;;9.10;60.60;;;;;;6185245;23;20430;-79
2023/03/01 05:22:33;;;;;;;;;;;9.10;60.40;;;;;;6185777;23;20076;-79
2023/03/01 05:24:59;;;;;;;7.13;4.32;;;9.00;60.80;;;;;;6185652;23;19935;-79
2023/03/01 05:27:25;;;;;;;9.18;5.00;;;9.10;60.70;;;;;;6183651;23;20028;-79
2023/03/01 05:29:50;;;;;;;10.75;5.20;;;9.10;60.80;;;;;;6182776;23;20001;-79
2023/03/01 05:32:19;;;;;;;7.28;4.35;;;9.10;61.00;;;;;;6183221;23;20320;-80
2023/03/01 05:34:46;;;;;;;7.55;4.78;;;9.10;60.90;;;;;;6184853;23;20007;-80
2023/03/01 05:37:13;;;;;;;7.72;4.07;;;9.10;61.00;;;;;;6183810;23;20009;-80
2023/03/01 05:39:39;;;;;;;8.98;4.57;;;9.20;61.00;;;;;;6185035;23;20477;-80
2023/03/01 05:42:05;;;;;;;10.90;5.30;;;9.20;60.40;;;;;;6185243;23;20001;-79
2023/03/01 05:44:31;;;;;;;9.77;5.70;;;9.20;60.50;;;;;;6186631;23;20009;-80
2023/03/01 05:46:57;;;;;;;8.45;5.40;;;9.20;60.90;;;;;;6186090;23;20067;-79
2023/03/01 05:49:25;;;;;;;6.10;4.63;;;9.20;61.00;;;;;;6183623;23;20051;-79
2023/03/01 05:51:52;;;;;;;7.47;4.40;;;9.20;61.00;;;;;;6185748;23;20032;-79
2023/03/01 05:54:20;;;;;;;8.23;5.53;;;9.20;61.00;;;;;;6182973;23;20005;-79
2023/03/01 05:56:46;;;;;;;7.38;4.30;;;9.20;61.30;;;;;;6186128;23;20025;-80
2023/03/01 05:59:16;;;;;;;7.20;4.30;;;9.20;60.90;;;;;;6184185;23;20024;-79
2023/03/01 06:01:42;;;;;;;12.10;5.68;;;9.20;61.00;;;;;;6183927;23;20009;-80
2023/03/01 06:04:08;;;;;;;11.10;5.35;;;9.00;61.40;;;;;;6184604;23;20416;-81
2023/03/01 06:06:37;;;;;;;6.75;3.78;;;9.00;61.80;;;;;;6183562;23;20009;-81
2023/03/01 06:09:03;;;;;;;5.93;4.13;;;9.00;62.00;;;;;;6184024;23;20459;-81
2023/03/01 06:11:29;;;;;;;8.00;4.10;;;9.20;61.50;;;;;;6185456;23;20016;-79
2023/03/01 06:13:55;;;;;;;8.63;4.00;;;9.20;61.90;;;;;;6184496;23;20001;-81
2023/03/01 06:16:21;;;;;;;6.30;4.32;;;9.30;61.60;;;;;;6183629;23;20005;-82
2023/03/01 06:18:46;;;;;;;7.75;4.50;;;9.30;61.80;;;;;;6183552;23;20004;-79
2023/03/01 06:21:12;;;;;;;6.60;4.20;;;9.30;63.70;;;;;;6185568;23;20012;-78
2023/03/01 06:23:37;;;;;;;6.65;4.10;;;9.40;62.60;;;;;;6182449;23;20067;-80
2023/03/01 06:26:07;;;;;;;6.22;4.30;;;9.40;62.50;;;;;;6184146;23;20008;-80
2023/03/01 06:28:33;;;;;;;5.85;3.85;;;9.50;62.10;;;;;;6182770;23;20001;-80
2023/03/01 06:30:59;;;;;;;8.93;4.68;;;9.50;61.10;;;;;;6184889;23;20022;-80
2023/03/01 06:33:25;;;;;;;5.30;4.05;;;9.50;61.60;;;;;;6184896;23;20005;-80
2023/03/01 06:35:51;;;;;;;10.95;3.90;;;9.50;61.30;;;;;;6183462;23;20123;-78
2023/03/01 06:38:18;;;;;;;4.95;3.60;;;9.50;61.70;;;;;;6179311;23;20076;-79
2023/03/01 06:40:45;;;;;;;6.50;4.00;;;9.60;61.10;;;;;;6181383;23;20316;-79
2023/03/01 06:43:11;;;;;;;6.85;4.10;;;9.60;61.70;;;;;;6170846;23;20055;-78
2023/03/01 06:45:37;;;;;;;9.00;4.53;;;9.60;61.60;;;;;;6184102;23;20013;-78
2023/03/01 06:48:04;;;;;;;4.85;3.55;;;9.70;61.80;;;;;;6184601;23;20008;-77
2023/03/01 06:50:30;;;;;;;5.53;4.00;;;9.70;61.60;;;;;;6184213;23;20012;-80
2023/03/01 06:52:57;;;;;;;8.40;4.07;;;9.70;61.60;;;;;;6185688;23;20124;-84
2023/03/01 06:55:22;;;;;;;9.15;4.30;;;9.70;64.80;;;;;;6184664;23;20012;-83
2023/03/01 06:57:48;;;;;;;6.38;3.53;;;9.70;65.90;;;;;;6184687;23;20360;-80
2023/03/01 07:00:14;;;;;;;6.35;4.03;;;9.80;61.70;;;;;;6184474;23;20076;-79
2023/03/01 07:02:40;;;;;;;6.50;4.32;;;9.80;61.20;;;;;;6182878;23;20079;-79
2023/03/01 07:05:07;;;;;;;6.35;3.30;;;9.80;61.10;;;;;;6183406;23;20031;-79
2023/03/01 07:07:32;;;;;;;5.90;3.67;;;9.80;61.20;;;;;;6184175;23;20056;-79
2023/03/01 07:09:58;;;;;;;7.45;4.10;;;9.90;61.20;;;;;;6184413;23;20416;-83
2023/03/01 07:12:24;;;;;;;6.78;3.88;;;9.90;61.20;;;;;;6184374;23;20300;-80
2023/03/01 07:14:49;;;;;;;6.57;4.55;;;10.00;61.70;;;;;;6185182;23;19997;-80
2023/03/01 07:17:15;;;;;;;6.28;4.00;;;10.00;61.10;;;;;;6185615;23;20060;-82
2023/03/01 07:19:40;;;;;;;4.85;4.00;;;9.90;60.60;;;;;;6183807;23;20017;-81
2023/03/01 07:22:07;;;;;;;9.70;3.97;;;10.00;61.20;;;;;;6185014;23;20312;-82
2023/03/01 07:24:33;;;;;;;7.05;4.05;;;10.00;59.70;;;;;;6185334;23;20044;-83
2023/03/01 07:26:59;;;;;;;4.93;3.65;;;10.10;60.50;;;;;;6184969;23;20343;-81
2023/03/01 07:29:25;;;;;;;5.60;3.55;;;10.10;60.40;;;;;;6184717;23;20001;-79
2023/03/01 07:31:51;;;;;;;5.72;3.42;;;10.20;60.20;;;;;;6182493;23;20426;-78
2023/03/01 07:34:16;;;;;;;10.60;4.32;;;10.20;60.00;;;;;;6185130;23;20001;-78
2023/03/01 07:36:43;;;;;;;5.03;3.38;;;10.30;59.50;;;;;;6184123;23;19997;-77
2023/03/01 07:39:10;;;;;;;6.38;3.97;;;10.30;59.80;;;;;;6182212;23;20052;-82
2023/03/01 07:41:36;;;;;;;5.75;4.07;;;10.30;59.00;;;;;;6184700;23;20093;-82
2023/03/01 07:44:02;;;;;;;6.55;4.22;;;10.20;59.10;;;;;;6184565;23;20001;-82
2023/03/01 07:46:27;;;;;;;8.15;4.47;;;10.20;59.30;;;;;;6184389;23;20001;-84
2023/03/01 07:48:53;;;;;;;6.50;3.70;;;10.20;59.40;;;;;;6186267;23;20092;-81
2023/03/01 07:51:19;;;;;;;7.38;4.18;;;10.20;59.80;;;;;;6185025;23;20009;-82
2023/03/01 07:53:48;;;;;;;6.53;4.00;;;10.10;59.20;;;;;;6181897;23;20020;-80
2023/03/01 07:56:17;;;;;;;4.85;3.28;;;10.20;59.70;;;;;;6186087;23;20084;-81
2023/03/01 07:58:44;;;;;;;5.32;3.25;;;10.20;59.50;;;;;;6185190;23;19997;-81
2023/03/01 08:01:17;;;;;;;7.43;3.80;;;10.30;58.90;;;;;;6184759;23;20012;-82
2023/03/01 08:03:46;;;;;;;9.77;4.70;;;10.30;58.70;;;;;;6185323;23;20005;-85
2023/03/01 08:06:13;;;;;;;9.93;3.90;;;10.30;58.90;;;;;;6186190;23;20471;-83
2023/03/01 08:08:39;;;;;;;4.88;3.30;;;10.30;59.30;;;;;;6185669;23;20131;-78
2023/03/01 08:11:07;;;;;;;6.18;3.78;;;10.40;58.40;;;;;;6183969;23;20503;-78
2023/03/01 08:13:33;;;;;;;5.03;3.65;;;10.30;59.00;;;;;;6184670;23;20455;-78
2023/03/01 08:16:07;;;;;;;7.72;4.22;;;10.40;59.10;;;;;;6181677;23;20013;-78
2023/03/01 08:18:33;;;;;;;7.20;4.18;;;10.40;58.70;;;;;;6181912;23;20009;-79
2023/03/01 08:21:07;;;;;;;6.40;3.08;;;10.40;58.90;;;;;;6186706;23;20081;-92
2023/03/01 08:23:32;;;;;;;7.25;3.95;;;10.50;58.90;;;;;;6188084;23;20001;-89
2023/03/01 08:26:06;;;;;;;7.05;4.40;;;10.50;58.70;;;;;;6189226;23;20030;-91
2023/03/01 08:28:32;;;;;;;10.63;4.50;;;;;;;;;;6187387;23;20005;-92
2023/03/01 08:30:57;;;;;;;5.80;3.47;;;10.60;58.20;;;;;;6186228;23;20088;-91
2023/03/01 08:33:23;;;;;;;5.25;3.60;;;10.50;58.20;;;;;;6186118;23;20033;-86
2023/03/01 08:35:49;;;;;;;6.55;4.43;;;10.60;58.20;;;;;;6187164;23;20108;-86
2023/03/01 08:38:15;;;;;;;7.45;3.65;;;10.60;58.50;;;;;;6187183;23;20032;-84
2023/03/01 08:40:44;;;;;;;6.03;4.15;;;10.70;57.60;;;;;;6185233;23;20493;-87
2023/03/01 08:43:10;;;;;;;18.03;5.20;;;10.70;58.20;;;;;;6185813;23;20035;-86
2023/03/01 08:45:35;;;;;;;14.32;5.13;;;10.90;57.40;;;;;;6186057;23;20224;-87
2023/03/01 08:48:01;;;;;;;7.03;4.38;;;11.00;56.90;;;;;;6186241;23;20083;-77
2023/03/01 08:50:27;;;;;;;11.45;4.53;;;11.20;57.30;;;;;;6185970;23;20037;-77
2023/03/01 08:52:52;;;;;;;10.20;4.32;;;11.30;56.50;;;;;;6184694;23;20309;-76
2023/03/01 08:55:18;;;;;;;19.33;4.53;;;11.30;56.30;;;;;;6185628;23;20001;-76
2023/03/01 08:57:44;;;;;;;9.55;3.72;;;11.40;56.20;;;;;;6185490;23;20005;-87
2023/03/01 09:00:14;;;;;;;5.38;3.15;;;11.50;56.60;;;;;;6186666;23;20024;-86
2023/03/01 09:02:40;;;;;;;8.25;3.50;;;11.60;56.70;;;;;;6186593;23;20001;-85
2023/03/01 09:05:06;;;;;;;5.03;3.67;;;11.60;56.60;;;;;;6186248;23;20068;-75
2023/03/01 09:07:32;;;;;;;4.88;3.08;;;11.60;55.90;;;;;;6185927;23;20435;-76
2023/03/01 09:09:57;;;;;;;6.32;3.58;;;11.70;55.20;;;;;;6185748;23;20008;-76
2023/03/01 09:12:24;;;;;;;5.63;3.10;;;11.60;55.50;;;;;;6185798;23;20005;-76
2023/03/01 09:14:50;;;;;;;6.57;3.00;;;11.90;55.70;;;;;;6185435;23;20416;-76
2023/03/01 09:17:16;;;;;;;5.35;3.35;;;11.90;56.10;;;;;;6185955;23;20081;-76
2023/03/01 09:19:41;;;;;;;6.28;3.80;;;12.00;56.60;;;;;;6186270;23;19997;-87
2023/03/01 09:22:07;;;;;;;5.82;3.42;;;12.00;55.20;;;;;;6185585;23;20036;-86
2023/03/01 09:24:33;;;;;;;5.82;3.50;;;12.00;55.80;;;;;;6185118;23;20446;-82
2023/03/01 09:26:58;;;;;;;5.80;3.65;;;12.10;54.60;;;;;;6185596;23;20497;-82
2023/03/01 09:29:25;;;;;;;5.32;3.30;;;12.10;55.10;;;;;;6185757;23;20001;-83
2023/03/01 09:31:51;;;;;;;5.45;3.35;;;12.10;55.10;;;;;;6185920;23;20009;-81
2023/03/01 09:34:22;;;;;;;5.30;3.88;;;12.20;55.20;;;;;;6184071;23;20029;-79
2023/03/01 09:36:48;;;;;;;5.00;3.00;;;12.30;54.50;;;;;;6183610;23;20025;-79
2023/03/01 09:39:14;;;;;;;8.85;4.32;;;12.30;55.20;;;;;;6184748;23;20009;-80
2023/03/01 09:42:04;;;;;;;5.25;3.50;;;12.40;54.80;;;;;;6185311;23;20135;-83
2023/03/01 09:44:57;;;;;;;9.82;3.35;;;12.60;53.50;;;;;;6186080;23;20009;-81
2023/03/01 09:47:35;;;;;;;11.30;3.88;;;12.70;54.50;;;;;;6184201;23;20032;-83
2023/03/01 09:50:03;;;;;;;6.07;3.78;;;12.70;54.10;;;;;;6184069;23;20045;-83
2023/03/01 09:52:46;;;;;;;4.95;3.33;;;12.80;53.80;;;;;;6186216;23;20009;-82
2023/03/01 09:55:16;;;;;;;7.50;4.85;;;12.60;53.00;;;;;;6185428;23;20001;-82
2023/03/01 09:57:50;;;;;;;10.32;4.82;;;12.50;54.10;;;;;;6185474;23;20008;-83
2023/03/01 10:00:24;;;;;;;7.95;4.05;;;12.50;54.10;;;;;;6186619;23;20080;-82
2023/03/01 10:03:11;;;;;;;5.18;3.40;;;12.40;54.30;;;;;;6186111;23;20001;-82
2023/03/01 10:06:08;;;;;;;8.98;3.97;;;12.50;54.20;;;;;;6185738;23;20053;-78
2023/03/01 10:08:43;;;;;;;8.65;3.80;;;12.50;54.60;;;;;;6186284;23;20169;-78
2023/03/01 10:11:30;;;;;;;11.55;4.53;;;12.50;54.50;;;;;;6185691;23;20012;-77
2023/03/01 10:13:58;;;;;;;8.48;4.03;;;12.40;54.60;;;;;;6185737;23;20071;-77
2023/03/01 10:17:02;;;;;;;10.30;4.80;;;12.40;54.80;;;;;;6182430;23;20012;-78
2023/03/01 10:19:35;;;;;;;6.80;4.25;;;12.30;55.30;;;;;;6094694;23;20147;-77
2023/03/01 10:22:15;;;;;;;8.13;3.70;;;12.30;54.70;;;;;;6173730;23;20009;-77
2023/03/01 10:24:42;;;;;;;7.60;3.92;;;12.30;55.10;;;;;;6185958;23;20001;-77
2023/03/01 10:27:23;;;;;;;12.27;4.63;;;12.30;55.10;;;;;;6184398;23;20004;-77
2023/03/01 10:30:00;;;;;;;9.43;3.72;;;12.20;55.10;;;;;;6183989;23;20005;-77
2023/03/01 10:32:26;;;;;;;15.95;4.72;;;12.20;55.80;;;;;;6186057;23;20008;-77
2023/03/01 10:34:52;;;;;;;9.02;4.05;;;12.20;56.20;;;;;;6185693;23;20001;-78
2023/03/01 10:37:21;;;;;;;8.88;4.32;;;12.10;56.70;;;;;;6184430;23;20371;-77
2023/03/01 10:40:08;;;;;;;7.33;3.70;;;12.10;56.90;;;;;;6183808;23;20001;-77
2023/03/01 10:42:38;;;;;;;7.53;3.33;;;12.20;56.60;;;;;;6185547;23;20236;-77
2023/03/01 10:45:38;;;;;;;9.75;3.45;;;12.30;56.00;;;;;;6185995;23;20012;-77
2023/03/01 10:48:25;;;;;;;8.70;3.00;;;12.40;55.60;;;;;;6186103;23;20009;-83
2023/03/01 10:50:58;;;;;;;10.23;3.20;;;12.40;56.10;;;;;;6186246;23;20017;-81
2023/03/01 10:53:28;;;;;;;14.32;2.58;;;12.40;56.20;;;;;;6185725;23;20339;-82
2023/03/01 10:56:10;;;;;;;9.05;3.35;;;12.50;56.30;;;;;;6186317;23;19997;-85
2023/03/01 10:58:38;;;;;;;12.93;3.53;;;12.50;54.80;;;;;;6186234;23;19997;-85
2023/03/01 11:01:23;;;;;;;10.68;3.40;;;12.50;54.90;;;;;;6186727;23;20009;-86
2023/03/01 11:04:07;;;;;;;12.27;3.60;;;12.40;55.20;;;;;;6185811;23;20012;-88
2023/03/01 11:06:34;;;;;;;9.50;3.88;;;12.30;54.50;;;;;;6186496;23;20005;-89
2023/03/01 11:09:20;;;;;;;8.32;3.17;;;12.30;55.00;;;;;;6187187;23;20009;-89
2023/03/01 11:11:52;;;;;;;7.78;3.08;;;12.30;56.00;;;;;;6186867;23;20381;-88
2023/03/01 11:14:20;;;;;;;9.48;3.10;;;12.30;56.40;;;;;;6187148;23;20001;-88
2023/03/01 11:16:48;;;;;;;17.25;4.63;;;12.30;56.40;;;;;;6187785;23;20081;-88
2023/03/01 11:19:18;;;;;;;7.97;3.35;;;12.30;56.50;;;;;;6187706;23;20636;-89
2023/03/01 11:22:19;;;;;;;12.20;3.67;;;12.30;56.80;;;;;;6186851;23;20466;-88
2023/03/01 11:24:51;;;;;;;10.23;4.03;;;12.10;56.20;;;;;;6095582;23;20006;-87
2023/03/01 11:27:27;;;;;;;7.53;4.30;;;12.10;56.50;;;;;;6178885;23;20056;-88
2023/03/01 11:30:16;;;;;;;10.73;3.78;;;12.10;56.80;;;;;;6186113;23;20016;-79
2023/03/01 11:33:07;;;;;;;7.80;3.78;;;12.00;56.90;;;;;;6183238;23;20011;-79
2023/03/01 11:35:37;;;;;;;9.38;4.22;;;12.00;56.60;;;;;;6175518;23;20028;-79
2023/03/01 11:38:24;;;;;;;7.20;3.33;;;11.90;56.80;;;;;;6185423;23;20012;-80
2023/03/01 11:41:07;;;;;;;4.90;3.03;;;;;;;;;;6184969;23;20032;-80
2023/03/01 11:43:44;;;;;;;10.90;3.67;;;12.00;57.70;;;;;;6185018;23;20001;-77
2023/03/01 11:46:28;;;;;;;9.63;3.90;;;12.10;57.50;;;;;;6185328;23;20088;-77
2023/03/01 11:49:09;;;;;;;8.10;3.65;;;12.10;57.50;;;;;;6183912;23;20110;-86
2023/03/01 11:51:53;;;;;;;9.38;4.15;;;12.10;58.30;;;;;;6185906;23;20012;-85
2023/03/01 11:54:41;;;;;;;13.68;3.38;;;12.10;58.30;;;;;;6184264;23;20001;-88
2023/03/01 11:57:44;;;;;;;9.02;3.33;;;12.00;58.70;;;;;;6183614;23;20032;-88
2023/03/01 12:00:34;;;;;;;10.30;3.38;;;12.00;58.80;;;;;;6185287;23;20001;-86
2023/03/01 12:03:20;;;;;;;12.60;3.47;;;12.00;58.90;;;;;;6184293;23;20364;-85
2023/03/01 12:06:03;;;;;;;10.73;3.47;;;11.90;59.10;;;;;;6184591;23;20339;-84
2023/03/01 12:08:53;;;;;;;10.52;4.00;;;11.90;58.10;;;;;;6184371;23;19998;-85
2023/03/01 12:11:25;;;;;;;9.20;4.50;;;11.90;58.90;;;;;;6183226;23;20009;-87
2023/03/01 12:14:13;;;;;;;11.25;3.60;;;11.80;58.50;;;;;;6184201;23;20428;-88
2023/03/01 12:16:58;;;;;;;10.20;4.63;;;11.80;58.80;;;;;;6184836;23;20001;-88
2023/03/01 12:19:45;;;;;;;7.18;3.50;;;11.70;59.20;;;;;;6184531;23;19998;-88
2023/03/01 12:22:29;;;;;;;11.15;3.95;;;11.70;59.20;;;;;;6182865;23;20080;-83
2023/03/01 12:25:28;;;;;;;13.40;4.47;;;11.70;59.80;;;;;;6182524;23;20005;-87
2023/03/01 12:28:13;;;;;;;9.48;3.78;;;11.60;59.90;;;;;;6183055;23;20039;-86
2023/03/01 12:31:05;;;;;;;11.90;3.67;;;11.50;60.60;;;;;;6183108;23;20037;-85
2023/03/01 12:33:55;;;;;;;5.78;3.05;;;11.50;60.40;;;;;;6183224;23;19997;-86
2023/03/01 12:36:26;;;;;;;8.85;3.70;;;11.40;60.60;;;;;;6182989;23;20005;-85
2023/03/01 12:39:32;;;;;;;7.00;3.80;;;11.50;60.70;;;;;;6182465;23;19997;-85
2023/03/01 12:42:28;;;;;;;8.85;4.35;;;11.60;60.80;;;;;;6182427;23;20032;-85
2023/03/01 12:45:12;;;;;;;9.65;4.53;;;11.50;60.00;;;;;;6184953;23;20012;-86
2023/03/01 12:47:53;;;;;;;5.38;3.30;;;11.50;60.30;;;;;;6183090;23;20012;-85
2023/03/01 12:50:20;;;;;;;5.90;3.55;;;11.70;60.10;;;;;;6186542;23;20009;-85
2023/03/01 12:52:51;;;;;;;6.88;3.85;;;11.70;59.70;;;;;;6186972;23;20013;-85
2023/03/01 12:55:23;;;;;;;4.32;3.03;;;11.60;59.70;;;;;;6187805;23;20072;-85
2023/03/01 12:58:15;;;;;;;4.32;2.88;;;11.70;59.60;;;;;;6185479;23;20005;-86
2023/03/01 13:01:21;;;;;;;8.35;3.63;;;11.70;58.90;;;;;;6187477;23;19997;-85
2023/03/01 13:04:01;;;;;;;6.90;4.18;;;11.70;59.30;;;;;;6174205;23;20442;-85
2023/03/01 13:06:42;;;;;;;10.93;4.10;;;11.60;58.80;;;;;;6188069;23;20072;-85
2023/03/01 13:09:14;;;;;;;;;;;11.40;58.70;;;;;;6188482;23;20408;-84
2023/03/01 13:11:43;;;;;;;4.80;3.28;;;11.30;59.10;;;;;;6187410;23;20318;-86
2023/03/01 13:14:21;;;;;;;10.50;3.53;;;11.40;59.50;;;;;;6188481;23;20376;-87
2023/03/01 13:16:51;;;;;;;5.93;3.22;;;11.40;59.60;;;;;;6185630;23;20011;-87